Terminal Aerodrome Forecast
Issued by NWS

Home | Current Version | Previous Version | Text Only | Print | Product List | Glossary On
Versions: 1 2 3 4 5 6 7 8 9 10 11 12 13 14 15 16 17 18 19 20 21 22 23 24 25
000
FTUS43 KLOT 201522 AAA
TAFGYY
TAF AMD
KGYY 201522Z 2015/2112 22014G19KT 6SM -SHRA SCT012 SCT017 OVC040
      TEMPO 2015/2018 2SM SHRA BR BKN017
     FM201800 23015G22KT 4SM SHRA BR SCT006 OVC010
      TEMPO 2019/2023 1SM TSRA BR OVC006CB
     FM202300 30011KT 2SM SHRA BR SCT004 OVC007
     FM210600 32012G17KT 4SM -FZRAPL BR SCT007 OVC015
     FM210800 33012G17KT P6SM SCT015 BKN080=

USA.gov is the U.S. government's official web portal to all federal, state and local government web resources and services.